sensor_id;sensor_type;location;lat;lon;timestamp;temperature;humidity
74511;DHT22;62991;50.040;18.400;2024-03-08T00:00:30;3.20;66.00
74511;DHT22;62991;50.040;18.400;2024-03-08T00:03:32;3.20;66.00
74511;DHT22;62991;50.040;18.400;2024-03-08T00:06:34;3.20;65.80
74511;DHT22;62991;50.040;18.400;2024-03-08T00:09:34;3.10;66.40
74511;DHT22;62991;50.040;18.400;2024-03-08T00:12:35;3.10;66.60
74511;DHT22;62991;50.040;18.400;2024-03-08T00:15:36;3.20;66.20
74511;DHT22;62991;50.040;18.400;2024-03-08T00:18:36;3.30;65.70
74511;DHT22;62991;50.040;18.400;2024-03-08T00:21:37;3.20;65.80
74511;DHT22;62991;50.040;18.400;2024-03-08T00:24:38;3.20;66.00
74511;DHT22;62991;50.040;18.400;2024-03-08T00:27:38;3.10;66.40
74511;DHT22;62991;50.040;18.400;2024-03-08T00:30:39;3.00;66.40
74511;DHT22;62991;50.040;18.400;2024-03-08T00:33:40;3.00;66.40
74511;DHT22;62991;50.040;18.400;2024-03-08T00:36:40;3.10;66.60
74511;DHT22;62991;50.040;18.400;2024-03-08T00:39:41;3.40;65.70
74511;DHT22;62991;50.040;18.400;2024-03-08T00:42:42;3.20;65.90
74511;DHT22;62991;50.040;18.400;2024-03-08T00:45:44;3.30;65.80
74511;DHT22;62991;50.040;18.400;2024-03-08T00:48:44;3.40;65.50
74511;DHT22;62991;50.040;18.400;2024-03-08T00:51:45;3.40;65.40
74511;DHT22;62991;50.040;18.400;2024-03-08T00:54:45;3.40;65.30
74511;DHT22;62991;50.040;18.400;2024-03-08T00:57:46;3.20;65.40
74511;DHT22;62991;50.040;18.400;2024-03-08T01:00:47;3.20;65.90
74511;DHT22;62991;50.040;18.400;2024-03-08T01:03:47;3.30;65.70
74511;DHT22;62991;50.040;18.400;2024-03-08T01:06:49;3.40;65.80
74511;DHT22;62991;50.040;18.400;2024-03-08T01:09:49;3.20;66.00
74511;DHT22;62991;50.040;18.400;2024-03-08T01:12:50;3.20;66.00
74511;DHT22;62991;50.040;18.400;2024-03-08T01:15:51;3.20;66.00
74511;DHT22;62991;50.040;18.400;2024-03-08T01:18:51;3.30;65.70
74511;DHT22;62991;50.040;18.400;2024-03-08T01:21:52;3.00;66.20
74511;DHT22;62991;50.040;18.400;2024-03-08T01:24:53;3.10;66.40
74511;DHT22;62991;50.040;18.400;2024-03-08T01:27:53;3.00;66.70
74511;DHT22;62991;50.040;18.400;2024-03-08T01:30:54;3.10;66.50
74511;DHT22;62991;50.040;18.400;2024-03-08T01:33:58;3.10;66.00
74511;DHT22;62991;50.040;18.400;2024-03-08T01:36:59;3.10;66.00
74511;DHT22;62991;50.040;18.400;2024-03-08T01:40:00;2.80;66.50
74511;DHT22;62991;50.040;18.400;2024-03-08T01:46:19;2.70;67.20
74511;DHT22;62991;50.040;18.400;2024-03-08T01:49:22;2.80;66.90
74511;DHT22;62991;50.040;18.400;2024-03-08T01:52:25;2.80;67.10
74511;DHT22;62991;50.040;18.400;2024-03-08T01:55:26;2.50;67.50
74511;DHT22;62991;50.040;18.400;2024-03-08T01:58:27;2.50;67.90
74511;DHT22;62991;50.040;18.400;2024-03-08T02:01:29;2.60;67.70
74511;DHT22;62991;50.040;18.400;2024-03-08T02:04:30;2.70;67.20
74511;DHT22;62991;50.040;18.400;2024-03-08T02:07:34;2.80;66.70
74511;DHT22;62991;50.040;18.400;2024-03-08T02:10:35;2.90;66.50
74511;DHT22;62991;50.040;18.400;2024-03-08T02:13:36;2.90;66.60
74511;DHT22;62991;50.040;18.400;2024-03-08T02:16:36;3.00;66.30
74511;DHT22;62991;50.040;18.400;2024-03-08T02:19:38;2.90;66.20
74511;DHT22;62991;50.040;18.400;2024-03-08T02:22:39;2.80;66.80
74511;DHT22;62991;50.040;18.400;2024-03-08T02:25:39;2.80;66.90
74511;DHT22;62991;50.040;18.400;2024-03-08T02:28:40;2.90;66.60
74511;DHT22;62991;50.040;18.400;2024-03-08T02:31:43;2.80;67.00
74511;DHT22;62991;50.040;18.400;2024-03-08T02:34:44;2.90;66.70
74511;DHT22;62991;50.040;18.400;2024-03-08T02:37:44;2.80;66.60
74511;DHT22;62991;50.040;18.400;2024-03-08T02:40:52;2.80;66.80
74511;DHT22;62991;50.040;18.400;2024-03-08T02:43:53;2.80;66.50
74511;DHT22;62991;50.040;18.400;2024-03-08T02:46:53;2.80;66.60
74511;DHT22;62991;50.040;18.400;2024-03-08T02:49:55;2.90;66.80
74511;DHT22;62991;50.040;18.400;2024-03-08T02:52:56;2.90;66.60
74511;DHT22;62991;50.040;18.400;2024-03-08T02:55:56;2.90;66.70
74511;DHT22;62991;50.040;18.400;2024-03-08T02:58:57;2.90;66.80
74511;DHT22;62991;50.040;18.400;2024-03-08T03:01:58;2.90;66.50
74511;DHT22;62991;50.040;18.400;2024-03-08T03:04:58;2.70;67.00
74511;DHT22;62991;50.040;18.400;2024-03-08T03:08:02;2.80;67.20
74511;DHT22;62991;50.040;18.400;2024-03-08T03:11:10;2.70;67.30
74511;DHT22;62991;50.040;18.400;2024-03-08T03:14:10;2.60;67.50
74511;DHT22;62991;50.040;18.400;2024-03-08T03:17:11;2.70;67.50
74511;DHT22;62991;50.040;18.400;2024-03-08T03:20:12;2.60;67.70
74511;DHT22;62991;50.040;18.400;2024-03-08T03:23:22;2.80;67.20
74511;DHT22;62991;50.040;18.400;2024-03-08T03:26:23;2.60;67.30
74511;DHT22;62991;50.040;18.400;2024-03-08T03:29:24;2.60;67.60
74511;DHT22;62991;50.040;18.400;2024-03-08T03:32:25;2.60;67.40
74511;DHT22;62991;50.040;18.400;2024-03-08T03:35:30;2.70;66.70
74511;DHT22;62991;50.040;18.400;2024-03-08T03:38:30;2.60;66.70
74511;DHT22;62991;50.040;18.400;2024-03-08T03:41:31;2.60;67.40
74511;DHT22;62991;50.040;18.400;2024-03-08T03:44:31;2.50;67.20
74511;DHT22;62991;50.040;18.400;2024-03-08T03:47:33;2.60;67.10
74511;DHT22;62991;50.040;18.400;2024-03-08T03:50:33;2.50;67.10
74511;DHT22;62991;50.040;18.400;2024-03-08T03:53:37;2.50;67.70
74511;DHT22;62991;50.040;18.400;2024-03-08T03:56:37;2.50;67.30
74511;DHT22;62991;50.040;18.400;2024-03-08T03:59:38;2.50;67.30
74511;DHT22;62991;50.040;18.400;2024-03-08T04:02:40;2.50;67.00
74511;DHT22;62991;50.040;18.400;2024-03-08T04:05:41;2.50;66.90
74511;DHT22;62991;50.040;18.400;2024-03-08T04:08:42;2.30;67.40
74511;DHT22;62991;50.040;18.400;2024-03-08T04:11:42;2.10;68.20
74511;DHT22;62991;50.040;18.400;2024-03-08T04:14:43;2.20;68.00
74511;DHT22;62991;50.040;18.400;2024-03-08T04:17:44;2.10;68.30
74511;DHT22;62991;50.040;18.400;2024-03-08T04:20:46;2.00;68.70
74511;DHT22;62991;50.040;18.400;2024-03-08T04:23:47;2.00;69.00
74511;DHT22;62991;50.040;18.400;2024-03-08T04:26:47;1.90;69.00
74511;DHT22;62991;50.040;18.400;2024-03-08T04:29:48;2.00;68.80
74511;DHT22;62991;50.040;18.400;2024-03-08T04:32:48;2.10;68.50
74511;DHT22;62991;50.040;18.400;2024-03-08T04:35:49;1.90;68.50
74511;DHT22;62991;50.040;18.400;2024-03-08T04:38:50;2.10;68.40
74511;DHT22;62991;50.040;18.400;2024-03-08T04:41:51;2.10;68.10
74511;DHT22;62991;50.040;18.400;2024-03-08T04:44:52;2.10;67.90
74511;DHT22;62991;50.040;18.400;2024-03-08T04:47:54;2.10;68.00
74511;DHT22;62991;50.040;18.400;2024-03-08T04:50:54;2.20;67.60
74511;DHT22;62991;50.040;18.400;2024-03-08T04:53:56;2.10;68.10
74511;DHT22;62991;50.040;18.400;2024-03-08T04:56:57;1.80;68.50
74511;DHT22;62991;50.040;18.400;2024-03-08T04:59:58;1.90;68.60
74511;DHT22;62991;50.040;18.400;2024-03-08T05:02:59;2.00;68.10
74511;DHT22;62991;50.040;18.400;2024-03-08T05:06:00;1.90;67.90
74511;DHT22;62991;50.040;18.400;2024-03-08T05:09:00;1.90;68.10
74511;DHT22;62991;50.040;18.400;2024-03-08T05:12:01;1.80;68.40
74511;DHT22;62991;50.040;18.400;2024-03-08T05:15:02;1.90;68.30
74511;DHT22;62991;50.040;18.400;2024-03-08T05:18:05;2.00;68.20
74511;DHT22;62991;50.040;18.400;2024-03-08T05:21:06;2.00;68.10
74511;DHT22;62991;50.040;18.400;2024-03-08T05:24:07;2.00;67.90
74511;DHT22;62991;50.040;18.400;2024-03-08T05:27:10;2.00;68.00
74511;DHT22;62991;50.040;18.400;2024-03-08T05:30:11;2.10;67.50
74511;DHT22;62991;50.040;18.400;2024-03-08T05:33:15;2.10;67.50
74511;DHT22;62991;50.040;18.400;2024-03-08T05:36:16;2.00;68.00
74511;DHT22;62991;50.040;18.400;2024-03-08T05:39:20;2.10;67.70
74511;DHT22;62991;50.040;18.400;2024-03-08T05:42:21;2.10;67.70
74511;DHT22;62991;50.040;18.400;2024-03-08T05:45:21;2.10;67.60
74511;DHT22;62991;50.040;18.400;2024-03-08T05:48:22;2.10;67.60
74511;DHT22;62991;50.040;18.400;2024-03-08T05:51:25;2.30;68.40
74511;DHT22;62991;50.040;18.400;2024-03-08T05:54:27;2.30;68.00
74511;DHT22;62991;50.040;18.400;2024-03-08T05:57:28;2.30;67.50
74511;DHT22;62991;50.040;18.400;2024-03-08T06:00:28;2.30;67.20
74511;DHT22;62991;50.040;18.400;2024-03-08T06:03:31;2.50;67.00
74511;DHT22;62991;50.040;18.400;2024-03-08T06:06:32;2.40;67.40
74511;DHT22;62991;50.040;18.400;2024-03-08T06:09:33;2.50;66.80
74511;DHT22;62991;50.040;18.400;2024-03-08T06:12:33;2.50;66.80
74511;DHT22;62991;50.040;18.400;2024-03-08T06:15:40;2.70;66.60
74511;DHT22;62991;50.040;18.400;2024-03-08T06:18:42;2.60;66.30
74511;DHT22;62991;50.040;18.400;2024-03-08T06:21:43;2.70;66.60
74511;DHT22;62991;50.040;18.400;2024-03-08T06:24:43;2.70;66.00
74511;DHT22;62991;50.040;18.400;2024-03-08T06:27:44;2.60;66.40
74511;DHT22;62991;50.040;18.400;2024-03-08T06:30:47;2.70;66.60
74511;DHT22;62991;50.040;18.400;2024-03-08T06:33:47;2.70;66.40
74511;DHT22;62991;50.040;18.400;2024-03-08T06:36:50;2.80;66.10
74511;DHT22;62991;50.040;18.400;2024-03-08T06:39:52;2.90;66.40
74511;DHT22;62991;50.040;18.400;2024-03-08T06:42:55;3.10;65.70
74511;DHT22;62991;50.040;18.400;2024-03-08T06:45:56;3.10;65.70
74511;DHT22;62991;50.040;18.400;2024-03-08T06:48:56;3.00;65.90
74511;DHT22;62991;50.040;18.400;2024-03-08T06:51:57;3.10;65.80
74511;DHT22;62991;50.040;18.400;2024-03-08T06:54:58;3.40;65.10
74511;DHT22;62991;50.040;18.400;2024-03-08T06:57:58;3.50;64.60
74511;DHT22;62991;50.040;18.400;2024-03-08T07:00:59;3.70;64.30
74511;DHT22;62991;50.040;18.400;2024-03-08T07:04:01;3.80;64.10
74511;DHT22;62991;50.040;18.400;2024-03-08T07:07:06;4.00;63.60
74511;DHT22;62991;50.040;18.400;2024-03-08T07:10:09;3.80;63.80
74511;DHT22;62991;50.040;18.400;2024-03-08T07:13:15;3.90;63.90
74511;DHT22;62991;50.040;18.400;2024-03-08T07:16:17;4.00;63.10
74511;DHT22;62991;50.040;18.400;2024-03-08T07:19:17;4.10;63.50
74511;DHT22;62991;50.040;18.400;2024-03-08T07:22:19;4.10;63.50
74511;DHT22;62991;50.040;18.400;2024-03-08T07:25:20;4.20;63.50
74511;DHT22;62991;50.040;18.400;2024-03-08T07:28:29;4.30;63.20
74511;DHT22;62991;50.040;18.400;2024-03-08T07:31:30;4.30;63.20
74511;DHT22;62991;50.040;18.400;2024-03-08T07:34:50;4.40;63.10
74511;DHT22;62991;50.040;18.400;2024-03-08T07:37:51;4.60;63.10
74511;DHT22;62991;50.040;18.400;2024-03-08T07:40:51;4.80;62.50
74511;DHT22;62991;50.040;18.400;2024-03-08T07:43:52;4.90;61.90
74511;DHT22;62991;50.040;18.400;2024-03-08T07:46:53;4.90;61.80
74511;DHT22;62991;50.040;18.400;2024-03-08T07:49:54;5.10;61.40
74511;DHT22;62991;50.040;18.400;2024-03-08T07:52:55;5.30;60.80
74511;DHT22;62991;50.040;18.400;2024-03-08T07:55:55;5.40;60.90
74511;DHT22;62991;50.040;18.400;2024-03-08T07:58:56;5.60;59.90
74511;DHT22;62991;50.040;18.400;2024-03-08T08:01:57;5.80;59.40
74511;DHT22;62991;50.040;18.400;2024-03-08T08:04:57;5.80;59.00
74511;DHT22;62991;50.040;18.400;2024-03-08T08:07:59;5.90;58.90
74511;DHT22;62991;50.040;18.400;2024-03-08T08:11:00;5.60;59.80
74511;DHT22;62991;50.040;18.400;2024-03-08T08:14:01;5.90;58.90
74511;DHT22;62991;50.040;18.400;2024-03-08T08:17:02;6.10;58.40
74511;DHT22;62991;50.040;18.400;2024-03-08T08:20:05;6.20;58.00
74511;DHT22;62991;50.040;18.400;2024-03-08T08:23:06;6.40;57.90
74511;DHT22;62991;50.040;18.400;2024-03-08T08:26:07;6.40;58.20
74511;DHT22;62991;50.040;18.400;2024-03-08T08:29:08;6.30;57.70
74511;DHT22;62991;50.040;18.400;2024-03-08T08:32:08;6.60;57.60
74511;DHT22;62991;50.040;18.400;2024-03-08T08:35:11;6.60;57.00
74511;DHT22;62991;50.040;18.400;2024-03-08T08:38:13;6.70;57.40
74511;DHT22;62991;50.040;18.400;2024-03-08T08:41:13;6.90;56.50
74511;DHT22;62991;50.040;18.400;2024-03-08T08:44:14;6.70;57.10
74511;DHT22;62991;50.040;18.400;2024-03-08T08:47:16;7.00;56.50
74511;DHT22;62991;50.040;18.400;2024-03-08T08:50:19;7.10;56.40
74511;DHT22;62991;50.040;18.400;2024-03-08T08:53:26;7.30;56.30
74511;DHT22;62991;50.040;18.400;2024-03-08T08:56:26;7.30;55.70
74511;DHT22;62991;50.040;18.400;2024-03-08T08:59:27;7.20;55.80
74511;DHT22;62991;50.040;18.400;2024-03-08T09:02:27;7.20;55.40
74511;DHT22;62991;50.040;18.400;2024-03-08T09:05:28;7.10;55.60
74511;DHT22;62991;50.040;18.400;2024-03-08T09:08:29;7.20;55.90
74511;DHT22;62991;50.040;18.400;2024-03-08T09:11:29;7.40;55.30
74511;DHT22;62991;50.040;18.400;2024-03-08T09:14:30;7.70;54.00
74511;DHT22;62991;50.040;18.400;2024-03-08T09:17:31;8.00;53.70
74511;DHT22;62991;50.040;18.400;2024-03-08T09:20:33;8.00;53.50
74511;DHT22;62991;50.040;18.400;2024-03-08T09:23:34;8.10;54.20
74511;DHT22;62991;50.040;18.400;2024-03-08T09:26:34;7.80;54.80
74511;DHT22;62991;50.040;18.400;2024-03-08T09:29:35;7.70;53.90
74511;DHT22;62991;50.040;18.400;2024-03-08T09:32:36;7.50;54.40
74511;DHT22;62991;50.040;18.400;2024-03-08T09:35:37;7.50;55.30
74511;DHT22;62991;50.040;18.400;2024-03-08T09:38:38;7.70;54.30
74511;DHT22;62991;50.040;18.400;2024-03-08T09:41:39;7.40;54.40
74511;DHT22;62991;50.040;18.400;2024-03-08T09:44:46;7.70;54.40
74511;DHT22;62991;50.040;18.400;2024-03-08T09:47:47;7.90;53.50
74511;DHT22;62991;50.040;18.400;2024-03-08T09:50:49;8.00;53.50
74511;DHT22;62991;50.040;18.400;2024-03-08T09:53:50;8.40;53.20
74511;DHT22;62991;50.040;18.400;2024-03-08T09:56:51;8.70;52.40
74511;DHT22;62991;50.040;18.400;2024-03-08T09:59:53;8.70;51.70
74511;DHT22;62991;50.040;18.400;2024-03-08T10:02:53;9.00;51.60
74511;DHT22;62991;50.040;18.400;2024-03-08T10:05:54;9.10;51.80
74511;DHT22;62991;50.040;18.400;2024-03-08T10:08:57;9.40;50.90
74511;DHT22;62991;50.040;18.400;2024-03-08T10:11:57;9.30;50.70
74511;DHT22;62991;50.040;18.400;2024-03-08T10:15:01;9.20;51.10
74511;DHT22;62991;50.040;18.400;2024-03-08T10:18:02;9.30;51.10
74511;DHT22;62991;50.040;18.400;2024-03-08T10:21:07;9.60;50.40
74511;DHT22;62991;50.040;18.400;2024-03-08T10:24:10;9.80;49.70
74511;DHT22;62991;50.040;18.400;2024-03-08T10:27:13;9.90;50.10
74511;DHT22;62991;50.040;18.400;2024-03-08T10:30:17;9.80;49.40
74511;DHT22;62991;50.040;18.400;2024-03-08T10:33:22;10.10;49.00
74511;DHT22;62991;50.040;18.400;2024-03-08T10:36:22;10.20;48.70
74511;DHT22;62991;50.040;18.400;2024-03-08T10:39:24;10.20;48.80
74511;DHT22;62991;50.040;18.400;2024-03-08T10:42:28;10.30;49.30
74511;DHT22;62991;50.040;18.400;2024-03-08T10:48:43;10.50;49.00
74511;DHT22;62991;50.040;18.400;2024-03-08T10:51:45;10.80;48.50
74511;DHT22;62991;50.040;18.400;2024-03-08T10:54:48;11.10;47.60
74511;DHT22;62991;50.040;18.400;2024-03-08T10:57:50;11.30;46.80
74511;DHT22;62991;50.040;18.400;2024-03-08T11:00:51;10.90;46.80
74511;DHT22;62991;50.040;18.400;2024-03-08T11:03:54;10.70;47.80
74511;DHT22;62991;50.040;18.400;2024-03-08T11:07:02;10.30;47.90
74511;DHT22;62991;50.040;18.400;2024-03-08T11:10:19;10.50;48.00
74511;DHT22;62991;50.040;18.400;2024-03-08T11:19:35;10.80;47.20
74511;DHT22;62991;50.040;18.400;2024-03-08T11:22:38;10.90;47.70
74511;DHT22;62991;50.040;18.400;2024-03-08T11:25:42;11.20;47.00
74511;DHT22;62991;50.040;18.400;2024-03-08T11:28:44;11.70;46.20
74511;DHT22;62991;50.040;18.400;2024-03-08T11:31:45;11.80;45.90
74511;DHT22;62991;50.040;18.400;2024-03-08T11:34:47;12.30;45.30
74511;DHT22;62991;50.040;18.400;2024-03-08T11:37:49;12.80;44.40
74511;DHT22;62991;50.040;18.400;2024-03-08T11:40:51;13.30;44.40
74511;DHT22;62991;50.040;18.400;2024-03-08T11:44:03;13.40;43.00
74511;DHT22;62991;50.040;18.400;2024-03-08T11:47:11;13.80;44.10
74511;DHT22;62991;50.040;18.400;2024-03-08T11:50:13;14.10;43.10
74511;DHT22;62991;50.040;18.400;2024-03-08T11:53:14;14.30;42.30
74511;DHT22;62991;50.040;18.400;2024-03-08T11:56:15;14.40;42.70
74511;DHT22;62991;50.040;18.400;2024-03-08T11:59:16;14.70;41.60
74511;DHT22;62991;50.040;18.400;2024-03-08T12:02:18;14.90;40.60
74511;DHT22;62991;50.040;18.400;2024-03-08T12:05:19;14.10;41.50
74511;DHT22;62991;50.040;18.400;2024-03-08T12:08:20;14.20;41.80
74511;DHT22;62991;50.040;18.400;2024-03-08T12:11:21;14.70;41.70
74511;DHT22;62991;50.040;18.400;2024-03-08T12:14:23;15.20;40.00
74511;DHT22;62991;50.040;18.400;2024-03-08T12:17:25;15.20;40.40
74511;DHT22;62991;50.040;18.400;2024-03-08T12:20:28;15.60;40.00
74511;DHT22;62991;50.040;18.400;2024-03-08T12:23:30;16.00;39.40
74511;DHT22;62991;50.040;18.400;2024-03-08T12:26:31;16.50;38.60
74511;DHT22;62991;50.040;18.400;2024-03-08T12:29:32;16.60;38.60
74511;DHT22;62991;50.040;18.400;2024-03-08T12:32:33;16.50;38.40
74511;DHT22;62991;50.040;18.400;2024-03-08T12:35:34;16.80;37.80
74511;DHT22;62991;50.040;18.400;2024-03-08T12:38:35;17.20;37.20
74511;DHT22;62991;50.040;18.400;2024-03-08T12:41:41;17.90;37.00
74511;DHT22;62991;50.040;18.400;2024-03-08T12:44:42;18.60;36.30
74511;DHT22;62991;50.040;18.400;2024-03-08T12:47:43;19.20;34.90
74511;DHT22;62991;50.040;18.400;2024-03-08T12:50:44;20.10;34.20
74511;DHT22;62991;50.040;18.400;2024-03-08T12:53:48;20.90;33.50
74511;DHT22;62991;50.040;18.400;2024-03-08T12:56:48;21.40;32.60
74511;DHT22;62991;50.040;18.400;2024-03-08T12:59:50;21.70;32.10
74511;DHT22;62991;50.040;18.400;2024-03-08T13:02:51;23.80;29.40
74511;DHT22;62991;50.040;18.400;2024-03-08T13:05:52;29.00;26.00
74511;DHT22;62991;50.040;18.400;2024-03-08T13:08:53;33.10;23.40
74511;DHT22;62991;50.040;18.400;2024-03-08T13:11:54;36.60;21.10
74511;DHT22;62991;50.040;18.400;2024-03-08T13:14:55;38.50;20.30
74511;DHT22;62991;50.040;18.400;2024-03-08T13:17:56;40.20;19.50
74511;DHT22;62991;50.040;18.400;2024-03-08T13:21:00;42.20;18.30
74511;DHT22;62991;50.040;18.400;2024-03-08T13:24:05;43.70;18.30
74511;DHT22;62991;50.040;18.400;2024-03-08T13:27:07;46.50;17.50
74511;DHT22;62991;50.040;18.400;2024-03-08T13:30:19;47.80;17.10
74511;DHT22;62991;50.040;18.400;2024-03-08T13:33:24;48.70;16.60
74511;DHT22;62991;50.040;18.400;2024-03-08T13:36:25;48.60;16.40
74511;DHT22;62991;50.040;18.400;2024-03-08T13:39:29;48.40;16.60
74511;DHT22;62991;50.040;18.400;2024-03-08T13:42:32;47.60;16.80
74511;DHT22;62991;50.040;18.400;2024-03-08T13:45:32;47.60;16.70
74511;DHT22;62991;50.040;18.400;2024-03-08T13:48:34;47.50;16.80
74511;DHT22;62991;50.040;18.400;2024-03-08T13:51:35;48.30;16.70
74511;DHT22;62991;50.040;18.400;2024-03-08T13:54:36;48.70;16.60
74511;DHT22;62991;50.040;18.400;2024-03-08T13:57:37;48.50;16.50
74511;DHT22;62991;50.040;18.400;2024-03-08T14:00:37;48.00;16.60
74511;DHT22;62991;50.040;18.400;2024-03-08T14:03:38;47.70;16.60
74511;DHT22;62991;50.040;18.400;2024-03-08T14:06:42;47.40;16.60
74511;DHT22;62991;50.040;18.400;2024-03-08T14:09:45;46.40;16.80
74511;DHT22;62991;50.040;18.400;2024-03-08T14:12:46;46.60;16.80
74511;DHT22;62991;50.040;18.400;2024-03-08T14:15:49;45.80;17.00
74511;DHT22;62991;50.040;18.400;2024-03-08T14:18:50;45.30;17.40
74511;DHT22;62991;50.040;18.400;2024-03-08T14:21:51;44.60;17.30
74511;DHT22;62991;50.040;18.400;2024-03-08T14:24:53;44.40;17.40
74511;DHT22;62991;50.040;18.400;2024-03-08T14:27:56;44.30;17.50
74511;DHT22;62991;50.040;18.400;2024-03-08T14:30:58;44.10;17.40
74511;DHT22;62991;50.040;18.400;2024-03-08T14:34:03;43.50;17.50
74511;DHT22;62991;50.040;18.400;2024-03-08T14:37:04;42.90;17.70
74511;DHT22;62991;50.040;18.400;2024-03-08T14:40:08;42.50;17.80
74511;DHT22;62991;50.040;18.400;2024-03-08T14:43:09;42.40;17.80
74511;DHT22;62991;50.040;18.400;2024-03-08T14:46:16;41.80;17.90
74511;DHT22;62991;50.040;18.400;2024-03-08T14:49:27;40.60;18.40
74511;DHT22;62991;50.040;18.400;2024-03-08T14:52:29;39.00;19.00
74511;DHT22;62991;50.040;18.400;2024-03-08T14:55:30;36.40;19.70
74511;DHT22;62991;50.040;18.400;2024-03-08T14:58:31;33.60;20.70
74511;DHT22;62991;50.040;18.400;2024-03-08T15:01:31;31.50;21.70
74511;DHT22;62991;50.040;18.400;2024-03-08T15:04:33;29.50;23.10
74511;DHT22;62991;50.040;18.400;2024-03-08T15:07:35;28.70;23.30
74511;DHT22;62991;50.040;18.400;2024-03-08T15:10:36;27.80;24.10
74511;DHT22;62991;50.040;18.400;2024-03-08T15:13:37;26.20;25.10
74511;DHT22;62991;50.040;18.400;2024-03-08T15:16:41;24.90;26.10
74511;DHT22;62991;50.040;18.400;2024-03-08T15:19:43;24.20;26.70
74511;DHT22;62991;50.040;18.400;2024-03-08T15:22:47;23.50;27.20
74511;DHT22;62991;50.040;18.400;2024-03-08T15:25:48;22.70;28.20
74511;DHT22;62991;50.040;18.400;2024-03-08T15:28:51;22.30;28.40
74511;DHT22;62991;50.040;18.400;2024-03-08T15:31:54;21.40;29.30
74511;DHT22;62991;50.040;18.400;2024-03-08T15:34:55;21.30;29.20
74511;DHT22;62991;50.040;18.400;2024-03-08T15:37:58;20.90;29.50
74511;DHT22;62991;50.040;18.400;2024-03-08T15:41:00;20.40;30.10
74511;DHT22;62991;50.040;18.400;2024-03-08T15:44:01;19.80;30.60
74511;DHT22;62991;50.040;18.400;2024-03-08T15:47:01;19.40;31.30
74511;DHT22;62991;50.040;18.400;2024-03-08T15:50:02;19.00;31.30
74511;DHT22;62991;50.040;18.400;2024-03-08T15:53:04;18.50;31.80
74511;DHT22;62991;50.040;18.400;2024-03-08T15:56:05;18.10;32.40
74511;DHT22;62991;50.040;18.400;2024-03-08T15:59:07;17.70;33.00
74511;DHT22;62991;50.040;18.400;2024-03-08T16:02:08;17.20;33.60
74511;DHT22;62991;50.040;18.400;2024-03-08T16:05:09;16.20;34.60
74511;DHT22;62991;50.040;18.400;2024-03-08T16:08:13;16.10;35.50
74511;DHT22;62991;50.040;18.400;2024-03-08T16:11:18;16.00;35.80
74511;DHT22;62991;50.040;18.400;2024-03-08T16:14:19;15.60;36.30
74511;DHT22;62991;50.040;18.400;2024-03-08T16:17:20;15.30;37.10
74511;DHT22;62991;50.040;18.400;2024-03-08T16:20:21;14.80;37.50
74511;DHT22;62991;50.040;18.400;2024-03-08T16:23:24;14.40;37.90
74511;DHT22;62991;50.040;18.400;2024-03-08T16:26:24;14.00;38.60
74511;DHT22;62991;50.040;18.400;2024-03-08T16:29:26;13.60;39.10
74511;DHT22;62991;50.040;18.400;2024-03-08T16:32:26;13.40;39.60
74511;DHT22;62991;50.040;18.400;2024-03-08T16:35:27;13.10;40.00
74511;DHT22;62991;50.040;18.400;2024-03-08T16:38:27;12.80;40.30
74511;DHT22;62991;50.040;18.400;2024-03-08T16:41:28;12.50;41.10
74511;DHT22;62991;50.040;18.400;2024-03-08T16:44:30;12.10;41.60
74511;DHT22;62991;50.040;18.400;2024-03-08T16:47:30;11.90;42.20
74511;DHT22;62991;50.040;18.400;2024-03-08T16:50:31;11.70;42.40
74511;DHT22;62991;50.040;18.400;2024-03-08T16:53:32;11.50;42.80
74511;DHT22;62991;50.040;18.400;2024-03-08T16:56:34;11.40;43.20
74511;DHT22;62991;50.040;18.400;2024-03-08T16:59:38;11.00;44.10
74511;DHT22;62991;50.040;18.400;2024-03-08T17:02:39;10.80;44.70
74511;DHT22;62991;50.040;18.400;2024-03-08T17:05:40;10.70;44.90
74511;DHT22;62991;50.040;18.400;2024-03-08T17:08:50;10.50;45.20
74511;DHT22;62991;50.040;18.400;2024-03-08T17:11:52;10.40;45.50
74511;DHT22;62991;50.040;18.400;2024-03-08T17:14:53;10.30;46.00
74511;DHT22;62991;50.040;18.400;2024-03-08T17:17:55;10.20;46.20
74511;DHT22;62991;50.040;18.400;2024-03-08T17:20:59;10.30;46.20
74511;DHT22;62991;50.040;18.400;2024-03-08T17:24:00;10.20;46.00
74511;DHT22;62991;50.040;18.400;2024-03-08T17:27:01;10.10;46.30
74511;DHT22;62991;50.040;18.400;2024-03-08T17:30:03;10.10;46.20
74511;DHT22;62991;50.040;18.400;2024-03-08T17:33:16;10.00;46.50
74511;DHT22;62991;50.040;18.400;2024-03-08T17:36:21;9.90;46.60
74511;DHT22;62991;50.040;18.400;2024-03-08T17:39:22;9.90;46.80
74511;DHT22;62991;50.040;18.400;2024-03-08T17:42:26;9.80;46.90
74511;DHT22;62991;50.040;18.400;2024-03-08T17:45:28;9.80;47.00
74511;DHT22;62991;50.040;18.400;2024-03-08T17:48:28;9.70;47.30
74511;DHT22;62991;50.040;18.400;2024-03-08T17:51:30;9.60;47.30
74511;DHT22;62991;50.040;18.400;2024-03-08T17:54:30;9.40;48.20
74511;DHT22;62991;50.040;18.400;2024-03-08T17:57:32;9.00;48.70
74511;DHT22;62991;50.040;18.400;2024-03-08T18:00:33;9.10;48.40
74511;DHT22;62991;50.040;18.400;2024-03-08T18:03:38;9.10;48.50
74511;DHT22;62991;50.040;18.400;2024-03-08T18:06:38;8.90;48.70
74511;DHT22;62991;50.040;18.400;2024-03-08T18:09:41;9.00;48.60
74511;DHT22;62991;50.040;18.400;2024-03-08T18:12:42;9.10;48.50
74511;DHT22;62991;50.040;18.400;2024-03-08T18:15:45;9.10;48.40
74511;DHT22;62991;50.040;18.400;2024-03-08T18:18:46;9.10;48.60
74511;DHT22;62991;50.040;18.400;2024-03-08T18:21:49;9.00;49.00
74511;DHT22;62991;50.040;18.400;2024-03-08T18:24:50;8.90;49.00
74511;DHT22;62991;50.040;18.400;2024-03-08T18:27:53;8.80;49.50
74511;DHT22;62991;50.040;18.400;2024-03-08T18:30:54;8.60;49.50
74511;DHT22;62991;50.040;18.400;2024-03-08T18:33:55;8.60;49.80
74511;DHT22;62991;50.040;18.400;2024-03-08T18:36:55;8.60;50.00
74511;DHT22;62991;50.040;18.400;2024-03-08T18:39:56;8.50;50.10
74511;DHT22;62991;50.040;18.400;2024-03-08T18:42:57;8.50;50.20
74511;DHT22;62991;50.040;18.400;2024-03-08T18:45:58;8.40;50.40
74511;DHT22;62991;50.040;18.400;2024-03-08T18:48:59;8.30;50.60
74511;DHT22;62991;50.040;18.400;2024-03-08T18:52:00;8.20;50.90
74511;DHT22;62991;50.040;18.400;2024-03-08T18:55:01;8.10;51.20
74511;DHT22;62991;50.040;18.400;2024-03-08T18:58:02;7.80;52.20
74511;DHT22;62991;50.040;18.400;2024-03-08T19:01:03;7.80;52.00
74511;DHT22;62991;50.040;18.400;2024-03-08T19:04:05;7.70;52.20
74511;DHT22;62991;50.040;18.400;2024-03-08T19:07:06;7.50;53.10
74511;DHT22;62991;50.040;18.400;2024-03-08T19:10:11;7.60;52.90
74511;DHT22;62991;50.040;18.400;2024-03-08T19:13:18;7.60;52.90